Manila, California
Current Conditions -  °F | °C
As of 3:53 PM on Saturday 25 Oct 2014 (Local Time) from KACV Reporting Station
Light Rain Light Rain  
Wind Chill: 59°   Ceiling: 4400
Heat Index: 59°   Visibility: 3mi
Dew Point: 55°   Wind: 7mph
Humidity: 87%   Direction: 220°SW
Pressure: 29.98"   Gusts: NA
Location:  40.8501°N, 124.038°W
Report Text: KACV 252253Z AUTO 22006KT 3SM -RA BR SCT028 SCT035 OVC044 15/13 A2998 RMK AO2 RAB09 SLP155 P0001 T01500128
Loading
Personal Weather Stations






























Interactive Weather Map
Tropical Storm Tracking
New forecast layout! Learn more

10-Day Weather Forecast

Advertisements
Track Severe Weather on mobile